Post Mills, Vermont
Current Conditions -  °F | °C
As of 8:53 AM on Monday 26 Jan 2015 (Local Time) from KLEB Reporting Station
Clear Clear  
Wind Chill:   Ceiling: Unl
Heat Index:   Visibility: 10mi
Dew Point: -4°   Wind: 3mph
Humidity: 76%   Direction: NA
Pressure: 30.14"   Gusts: NA
Location:  43.89°N, 72.26°W
Report Text: KLEB 261353Z AUTO VRB03KT 10SM CLR M17/M20 A3014 RMK AO2 SLP230 T11671200
Loading
Personal Weather Stations






























Interactive Weather Map New forecast layout! Learn more

10-Day Weather Forecast

Advertisements
Track Severe Weather on mobile